Time;durP1;ratioP1;P1;durP2;ratioP2;P2;SDS_P1;SDS_P2;PMS_P1;PMS_P2;Temp;Humidity;BMP_temperature;BMP_pressure;BME280_temperature;BME280_humidity;BME280_pressure;Samples;Min_cycle;Max_cycle;Signal;HPM_P1;HPM_P2
2021/04/23 00:01:57;;;;;;;4.60;2.87;;;17.80;48.10;;;;;;10456721;28;20208;-30
2021/04/23 00:07:20;;;;;;;4.87;3.30;;;17.80;48.10;;;;;;10457265;28;20219;-31
2021/04/23 00:12:41;;;;;;;4.03;2.90;;;17.80;48.10;;;;;;10455707;28;20263;-30
2021/04/23 00:18:04;;;;;;;5.17;3.07;;;17.80;48.20;;;;;;10456052;28;20719;-29
2021/04/23 00:23:28;;;;;;;5.03;2.93;;;17.80;48.10;;;;;;10455667;28;20216;-28
2021/04/23 00:28:49;;;;;;;4.73;2.90;;;17.80;48.10;;;;;;10455479;28;20283;-32
2021/04/23 00:34:11;;;;;;;4.97;3.07;;;17.80;48.20;;;;;;10456116;28;20220;-32
2021/04/23 00:39:35;;;;;;;4.83;2.97;;;17.80;48.30;;;;;;10455189;28;20196;-33
2021/04/23 00:44:56;;;;;;;4.73;2.33;;;17.80;48.30;;;;;;10455494;28;20216;-30
2021/04/23 00:50:30;;;;;;;4.13;3.00;;;17.80;48.20;;;;;;10448917;28;20223;-34
2021/04/23 00:55:55;;;;;;;3.37;2.53;;;17.80;48.30;;;;;;10455074;28;20588;-34
2021/04/23 01:01:22;;;;;;;4.87;2.63;;;17.80;48.30;;;;;;10456468;28;20211;-31
2021/04/23 01:06:44;;;;;;;4.23;2.40;;;17.80;48.30;;;;;;10454286;28;20224;-33
2021/04/23 01:17:18;;;;;;;3.97;2.43;;;17.80;48.30;;;;;;10431643;23;20625;-43
2021/04/23 01:22:40;;;;;;;4.33;2.60;;;17.80;48.40;;;;;;10409949;28;20232;-43
2021/04/23 01:28:02;;;;;;;3.47;2.73;;;17.80;48.40;;;;;;10412577;28;20224;-45
2021/04/23 01:33:24;;;;;;;3.00;2.67;;;17.80;48.40;;;;;;10412681;28;20222;-43
2021/04/23 01:38:48;;;;;;;6.53;2.90;;;17.80;48.40;;;;;;10412090;28;20248;-43
2021/04/23 01:44:11;;;;;;;4.33;2.63;;;17.80;48.40;;;;;;10411325;28;20224;-41
2021/04/23 01:49:33;;;;;;;3.90;2.77;;;17.80;48.50;;;;;;10370905;28;20697;-43
2021/04/23 01:54:56;;;;;;;4.97;3.07;;;17.70;48.50;;;;;;10377212;28;20592;-41
2021/04/23 02:00:20;;;;;;;4.77;2.17;;;17.70;48.60;;;;;;10391611;28;20205;-41
2021/04/23 02:05:43;;;;;;;5.80;2.60;;;17.70;48.50;;;;;;10411394;28;20241;-42
2021/04/23 02:11:10;;;;;;;3.63;2.67;;;17.70;48.60;;;;;;10410405;28;20193;-46
2021/04/23 02:16:32;;;;;;;3.03;2.57;;;17.70;48.60;;;;;;10410718;28;20218;-44
2021/04/23 02:21:54;;;;;;;4.37;2.80;;;17.70;48.60;;;;;;10411330;28;20193;-46
2021/04/23 02:27:16;;;;;;;3.23;2.60;;;17.70;48.70;;;;;;10388271;28;20237;-41
2021/04/23 02:32:38;;;;;;;4.67;2.33;;;17.70;48.60;;;;;;10410832;28;20609;-41
2021/04/23 02:38:00;;;;;;;4.83;2.53;;;17.70;48.60;;;;;;10410340;28;20680;-43
2021/04/23 02:43:25;;;;;;;5.43;2.50;;;17.70;48.80;;;;;;10409804;28;20282;-43
2021/04/23 02:48:48;;;;;;;4.93;2.77;;;17.70;48.80;;;;;;10409890;28;20287;-44
2021/04/23 02:54:10;;;;;;;5.17;2.63;;;17.70;48.80;;;;;;10398672;28;20216;-41
2021/04/23 02:59:33;;;;;;;6.30;2.83;;;17.70;48.80;;;;;;10369491;28;20190;-43
2021/04/23 03:04:56;;;;;;;4.40;2.33;;;17.70;48.80;;;;;;10369246;28;20225;-42
2021/04/23 03:10:23;;;;;;;4.90;2.60;;;17.70;48.80;;;;;;10368931;28;20225;-41
2021/04/23 03:15:47;;;;;;;4.47;2.57;;;17.70;48.80;;;;;;10393331;28;20259;-46
2021/04/23 03:21:10;;;;;;;4.90;2.63;;;17.70;48.80;;;;;;10409509;28;20550;-40
2021/04/23 03:26:33;;;;;;;4.73;2.50;;;17.60;48.80;;;;;;10370653;28;20701;-44
2021/04/23 03:31:55;;;;;;;3.47;2.20;;;17.60;48.80;;;;;;10383105;28;20209;-45
2021/04/23 03:37:17;;;;;;;4.97;2.47;;;17.60;48.90;;;;;;10409289;28;20214;-43
2021/04/23 03:42:39;;;;;;;4.07;2.50;;;17.60;48.90;;;;;;10408479;28;20235;-43
2021/04/23 03:48:02;;;;;;;4.90;2.63;;;17.60;48.90;;;;;;10409118;28;20223;-41
2021/04/23 03:53:24;;;;;;;6.30;2.70;;;17.70;49.00;;;;;;10405744;28;20244;-45
2021/04/23 03:58:46;;;;;;;4.10;2.33;;;17.70;48.90;;;;;;10378343;28;20602;-45
2021/04/23 04:04:09;;;;;;;5.37;2.40;;;17.70;48.90;;;;;;10395094;28;20228;-37
2021/04/23 04:09:30;;;;;;;4.17;2.57;;;17.70;48.80;;;;;;10407889;28;20263;-41
2021/04/23 04:14:52;;;;;;;4.07;2.10;;;17.70;48.80;;;;;;10414898;28;20229;-43
2021/04/23 04:20:15;;;;;;;4.23;2.30;;;17.70;48.80;;;;;;10414564;28;20639;-45
2021/04/23 04:25:39;;;;;;;2.73;2.10;;;17.70;48.90;;;;;;10416572;28;20640;-40
2021/04/23 04:31:01;;;;;;;4.00;2.20;;;17.60;48.90;;;;;;10414088;28;20221;-43
2021/04/23 04:36:23;;;;;;;3.70;2.37;;;17.70;48.90;;;;;;10414949;28;20224;-45
2021/04/23 04:41:45;;;;;;;4.73;2.50;;;17.60;48.80;;;;;;10414616;28;20205;-43
2021/04/23 04:47:06;;;;;;;3.73;2.40;;;17.70;48.90;;;;;;10404443;28;20709;-43
2021/04/23 04:52:29;;;;;;;3.07;2.17;;;17.70;48.90;;;;;;10373234;28;20201;-42
2021/04/23 04:57:50;;;;;;;5.00;2.20;;;17.70;49.00;;;;;;10403317;28;20197;-42
2021/04/23 05:03:13;;;;;;;2.53;2.10;;;17.70;48.90;;;;;;10396133;28;20229;-44
2021/04/23 05:08:35;;;;;;;3.17;2.03;;;17.70;49.00;;;;;;10371530;28;20221;-43
2021/04/23 05:13:58;;;;;;;3.00;2.30;;;17.70;49.00;;;;;;10372049;28;20280;-44
2021/04/23 05:19:20;;;;;;;4.07;2.27;;;17.70;49.10;;;;;;10382500;28;20205;-43
2021/04/23 05:24:42;;;;;;;4.17;2.30;;;17.70;49.00;;;;;;10371315;28;20237;-43
2021/04/23 05:30:06;;;;;;;4.47;2.37;;;17.70;49.00;;;;;;10371841;28;20640;-41
2021/04/23 05:35:29;;;;;;;3.47;1.83;;;17.70;49.00;;;;;;10372735;28;20221;-42
2021/04/23 05:40:51;;;;;;;2.80;2.10;;;17.70;49.00;;;;;;10372080;28;20209;-45
2021/04/23 05:46:13;;;;;;;4.80;2.03;;;17.70;49.10;;;;;;10371099;28;20229;-45
2021/04/23 05:51:35;;;;;;;5.13;2.10;;;17.70;49.10;;;;;;10384644;28;20229;-48
2021/04/23 05:56:58;;;;;;;4.27;2.33;;;17.70;49.70;;;;;;10397377;28;20213;-45
2021/04/23 06:02:19;;;;;;;4.37;1.93;;;17.80;50.00;;;;;;10394659;28;20205;-38
2021/04/23 06:07:41;;;;;;;4.00;2.03;;;17.80;50.10;;;;;;10405836;28;20226;-44
2021/04/23 06:13:04;;;;;;;3.80;2.03;;;17.90;50.80;;;;;;10371880;28;20381;-43
2021/04/23 06:18:26;;;;;;;2.13;1.87;;;17.90;50.30;;;;;;10397135;28;20198;-44
2021/04/23 06:23:47;;;;;;;3.00;1.93;;;18.00;50.30;;;;;;10404911;28;20267;-45
2021/04/23 06:29:10;;;;;;;4.40;2.23;;;18.00;50.10;;;;;;10362810;28;20222;-45
2021/04/23 06:34:32;;;;;;;2.30;1.77;;;18.00;50.00;;;;;;10363822;28;20218;-47
2021/04/23 06:39:53;;;;;;;5.33;2.07;;;18.10;50.20;;;;;;10362611;28;20787;-41
2021/04/23 06:45:20;;;;;;;4.83;2.20;;;18.10;50.00;;;;;;10387854;28;20225;-43
2021/04/23 06:50:42;;;;;;;5.23;2.07;;;18.10;50.30;;;;;;10360322;28;20272;-40
2021/04/23 06:56:04;;;;;;;3.93;2.07;;;18.20;50.20;;;;;;10362999;28;20234;-44
2021/04/23 07:01:27;;;;;;;2.07;1.60;;;18.20;50.10;;;;;;10369037;28;20205;-41
2021/04/23 07:06:49;;;;;;;4.40;2.17;;;18.30;50.10;;;;;;10364029;28;20232;-43
2021/04/23 07:12:10;;;;;;;2.70;1.67;;;18.20;50.00;;;;;;10354135;28;20237;-44
2021/04/23 07:17:33;;;;;;;3.47;1.77;;;18.30;49.90;;;;;;10379360;28;20201;-44
2021/04/23 07:22:54;;;;;;;5.30;2.03;;;18.30;50.60;;;;;;10411578;22;20610;-34
2021/04/23 07:28:16;;;;;;;4.10;1.47;;;18.30;50.00;;;;;;10354439;28;20218;-34
2021/04/23 07:33:39;;;;;;;2.30;1.50;;;18.30;49.80;;;;;;10375005;28;20682;-32
2021/04/23 07:39:01;;;;;;;3.33;1.57;;;18.30;50.00;;;;;;10333719;28;20552;-32
2021/04/23 07:44:23;;;;;;;2.00;1.50;;;18.30;49.90;;;;;;10312241;28;20227;-34
2021/04/23 07:49:47;;;;;;;2.57;1.50;;;18.40;50.20;;;;;;10299543;28;20590;-33
2021/04/23 07:55:10;;;;;;;4.27;1.97;;;18.40;50.10;;;;;;10336918;28;20559;-30
2021/04/23 08:00:32;;;;;;;3.87;1.80;;;18.40;49.40;;;;;;10317789;28;20198;-31
2021/04/23 08:05:55;;;;;;;3.97;1.47;;;18.50;49.50;;;;;;10331399;28;20764;-30
2021/04/23 08:11:17;;;;;;;4.67;1.83;;;18.50;49.30;;;;;;10322815;28;20219;-31
2021/04/23 08:16:39;;;;;;;2.53;1.53;;;18.50;49.60;;;;;;10293320;28;20227;-29
2021/04/23 08:22:01;;;;;;;3.83;1.53;;;18.50;49.40;;;;;;10314675;28;20258;-27
2021/04/23 08:27:23;;;;;;;2.40;1.50;;;18.50;49.30;;;;;;10288135;28;20234;-32
2021/04/23 08:32:44;;;;;;;2.33;1.20;;;18.60;49.40;;;;;;10287365;28;20224;-34
2021/04/23 08:38:07;;;;;;;3.47;1.40;;;18.60;49.30;;;;;;10286884;28;20204;-32
2021/04/23 08:43:29;;;;;;;4.13;1.60;;;18.50;49.20;;;;;;10285611;28;20224;-32
2021/04/23 08:48:51;;;;;;;3.10;1.40;;;18.60;49.30;;;;;;10286272;28;20715;-33
2021/04/23 08:54:14;;;;;;;2.50;1.47;;;18.60;49.40;;;;;;10285955;28;20231;-31
2021/04/23 08:59:35;;;;;;;3.13;1.60;;;18.60;49.70;;;;;;10288219;28;20210;-32
2021/04/23 09:04:57;;;;;;;4.40;1.60;;;18.60;49.50;;;;;;10357008;28;20226;-32
2021/04/23 09:10:20;;;;;;;2.87;1.40;;;18.60;49.20;;;;;;10366153;28;20217;-32
2021/04/23 09:15:43;;;;;;;2.47;1.33;;;18.60;49.40;;;;;;10356769;28;20276;-33
2021/04/23 09:21:05;;;;;;;2.33;1.40;;;18.60;49.30;;;;;;10370330;28;20203;-30
2021/04/23 09:26:34;;;;;;;2.63;1.20;;;18.60;49.70;;;;;;10341770;28;20254;-32
2021/04/23 09:31:57;;;;;;;3.73;1.33;;;18.50;49.70;;;;;;10332098;28;20575;-33
2021/04/23 09:37:19;;;;;;;2.57;1.20;;;18.40;50.00;;;;;;10326814;28;20560;-32
2021/04/23 09:42:47;;;;;;;4.63;1.30;;;18.40;50.10;;;;;;10322582;28;20211;-35
2021/04/23 09:48:18;;;;;;;4.10;1.33;;;18.40;50.10;;;;;;10288783;28;20258;-36
2021/04/23 09:53:43;;;;;;;2.40;1.20;;;18.40;50.40;;;;;;10290374;28;20223;-34
2021/04/23 09:59:20;;;;;;;4.10;1.40;;;18.30;50.00;;;;;;10327379;28;20204;-32
2021/04/23 10:04:42;;;;;;;2.87;0.97;;;18.30;49.90;;;;;;10355700;28;20725;-33
2021/04/23 10:10:05;;;;;;;2.43;1.30;;;18.30;49.90;;;;;;10370428;28;20229;-30
2021/04/23 10:15:30;;;;;;;3.70;1.50;;;18.30;49.90;;;;;;10369242;28;20219;-30
2021/04/23 10:20:56;;;;;;;3.40;1.20;;;18.30;49.70;;;;;;10369326;28;20186;-32
2021/04/23 10:26:17;;;;;;;4.20;1.37;;;18.30;50.10;;;;;;10348652;28;20231;-34
2021/04/23 10:31:40;;;;;;;3.30;1.40;;;18.30;50.00;;;;;;10327957;28;20218;-30
2021/04/23 10:37:02;;;;;;;3.97;1.57;;;18.30;49.80;;;;;;10328518;28;20211;-30
2021/04/23 10:42:43;;;;;;;2.73;1.30;;;18.30;49.90;;;;;;10326997;28;20277;-30
2021/04/23 10:48:25;;;;;;;3.70;1.30;;;18.30;49.70;;;;;;10290287;28;20216;-30
2021/04/23 10:53:48;;;;;;;1.60;1.07;;;18.30;49.70;;;;;;10288286;28;20207;-33
2021/04/23 10:59:28;;;;;;;2.87;1.30;;;18.20;49.40;;;;;;10324237;28;20195;-32
2021/04/23 11:04:56;;;;;;;2.60;1.40;;;18.30;49.40;;;;;;10359989;28;20218;-31
2021/04/23 11:10:17;;;;;;;4.80;1.90;;;18.20;49.60;;;;;;10375571;28;20218;-31
2021/04/23 11:15:40;;;;;;;3.60;1.90;;;18.20;49.10;;;;;;10331178;28;20243;-31
2021/04/23 11:21:35;;;;;;;5.27;2.83;;;18.20;49.00;;;;;;10356190;28;20207;-31
2021/04/23 11:27:09;;;;;;;4.53;2.57;;;18.30;48.40;;;;;;10339814;28;20223;-32
2021/04/23 11:32:32;;;;;;;5.53;3.37;;;18.40;48.80;;;;;;10293310;28;20568;-33
2021/04/23 11:37:55;;;;;;;5.57;3.50;;;18.40;49.20;;;;;;10295863;28;20192;-30
2021/04/23 11:43:37;;;;;;;6.03;3.13;;;18.40;49.10;;;;;;10301928;28;20271;-34
2021/04/23 11:48:58;;;;;;;6.47;3.63;;;18.50;49.70;;;;;;10302156;28;20215;-32
2021/04/23 11:54:35;;;;;;;5.93;3.53;;;18.50;49.70;;;;;;10323169;28;20254;-32
2021/04/23 12:00:01;;;;;;;7.03;3.73;;;18.50;49.80;;;;;;10322440;28;20187;-36
2021/04/23 12:05:31;;;;;;;6.83;3.80;;;18.50;49.50;;;;;;10337262;28;20298;-34
2021/04/23 12:10:55;;;;;;;6.90;3.83;;;18.50;49.70;;;;;;10326696;28;20301;-33
2021/04/23 12:16:18;;;;;;;6.83;3.40;;;18.50;49.80;;;;;;10291619;28;20219;-34
2021/04/23 12:21:39;;;;;;;5.83;3.40;;;18.50;48.80;;;;;;10292883;28;20199;-34
2021/04/23 12:27:01;;;;;;;8.10;3.93;;;18.50;49.50;;;;;;10292838;28;20231;-34
2021/04/23 12:32:24;;;;;;;6.27;3.17;;;18.50;49.70;;;;;;10322340;28;20268;-33
2021/04/23 12:37:47;;;;;;;5.23;3.30;;;18.50;49.40;;;;;;10331341;28;20659;-34
2021/04/23 12:43:17;;;;;;;7.30;3.60;;;18.50;49.20;;;;;;10332857;28;20227;-32
2021/04/23 12:48:39;;;;;;;4.63;3.10;;;18.50;49.00;;;;;;10327865;28;20219;-33
2021/04/23 12:54:02;;;;;;;5.53;3.00;;;18.50;49.40;;;;;;10333978;28;20571;-33
2021/04/23 12:59:37;;;;;;;4.17;2.90;;;18.50;49.30;;;;;;10292850;28;20198;-33
2021/04/23 13:05:08;;;;;;;5.37;2.83;;;18.50;49.40;;;;;;10360366;28;20215;-34
2021/04/23 13:10:38;;;;;;;6.33;2.80;;;18.50;49.20;;;;;;10371713;28;20211;-32
2021/04/23 13:16:04;;;;;;;5.87;2.70;;;18.50;49.60;;;;;;10347419;28;20242;-29
2021/04/23 13:21:31;;;;;;;5.77;2.80;;;18.50;49.50;;;;;;10338857;28;20201;-32
2021/04/23 13:26:52;;;;;;;5.67;2.83;;;18.50;49.50;;;;;;10371224;28;20567;-32
2021/04/23 13:32:14;;;;;;;4.83;2.53;;;18.50;49.40;;;;;;10395826;23;20230;-41
2021/04/23 13:37:36;;;;;;;5.17;2.20;;;18.60;49.40;;;;;;10342959;28;20199;-41
2021/04/23 13:43:08;;;;;;;4.60;2.30;;;18.50;49.20;;;;;;10369182;28;20226;-40
2021/04/23 13:48:31;;;;;;;5.07;2.57;;;18.50;49.50;;;;;;10371230;28;20284;-44
2021/04/23 13:53:56;;;;;;;4.40;2.40;;;18.50;49.60;;;;;;10370446;28;20229;-42
2021/04/23 13:59:27;;;;;;;4.57;2.10;;;18.60;49.90;;;;;;10328615;28;20198;-41
2021/04/23 14:04:50;;;;;;;5.43;2.20;;;18.50;49.40;;;;;;10366212;28;20698;-28
2021/04/23 14:10:13;;;;;;;5.20;2.40;;;18.60;49.80;;;;;;10368142;28;20214;-28
2021/04/23 14:15:35;;;;;;;5.95;2.80;;;18.50;50.50;;;;;;10366496;28;20419;-30
2021/04/23 14:20:57;;;;;;;7.77;2.60;;;19.00;48.70;;;;;;10368611;28;20190;-32
2021/04/23 14:26:20;;;;;;;4.00;2.03;;;18.80;49.40;;;;;;10348548;28;20216;-31
2021/04/23 14:31:42;;;;;;;4.77;2.17;;;18.70;49.50;;;;;;10334757;28;20226;-30
2021/04/23 14:37:03;;;;;;;6.57;2.40;;;18.70;49.60;;;;;;10337816;28;20663;-30
2021/04/23 14:42:26;;;;;;;3.07;1.87;;;18.80;49.40;;;;;;10328451;28;20218;-29
2021/04/23 14:47:48;;;;;;;3.93;1.87;;;19.20;48.90;;;;;;10348178;28;20713;-31
2021/04/23 14:53:10;;;;;;;5.23;2.20;;;19.50;48.20;;;;;;10359813;28;20280;-29
2021/04/23 14:58:32;;;;;;;4.07;1.87;;;19.80;48.10;;;;;;10361174;28;20228;-28
2021/04/23 15:03:54;;;;;;;4.33;1.40;;;20.10;47.70;;;;;;10368858;28;20218;-31
2021/04/23 15:09:15;;;;;;;4.13;2.17;;;20.30;47.40;;;;;;10358405;28;20504;-28
2021/04/23 15:14:38;;;;;;;2.80;1.70;;;20.50;46.80;;;;;;10365103;28;20226;-33
2021/04/23 15:20:01;;;;;;;3.13;1.70;;;20.70;46.40;;;;;;10361026;28;20229;-29
2021/04/23 15:25:23;;;;;;;3.00;1.70;;;20.80;46.00;;;;;;10334977;28;20516;-32
2021/04/23 15:30:47;;;;;;;2.10;1.67;;;20.90;45.90;;;;;;10324236;28;20215;-28
2021/04/23 15:36:09;;;;;;;3.63;1.60;;;20.80;45.80;;;;;;10341374;28;20622;-28
2021/04/23 15:41:33;;;;;;;3.30;1.93;;;20.70;45.60;;;;;;10367087;28;20590;-34
2021/04/23 15:46:56;;;;;;;2.27;1.60;;;20.60;45.70;;;;;;10340265;28;20334;-29
2021/04/23 15:52:17;;;;;;;2.97;1.83;;;20.60;45.60;;;;;;10373265;28;20233;-33
2021/04/23 15:57:39;;;;;;;2.53;1.50;;;20.60;45.70;;;;;;10346014;28;20219;-30
2021/04/23 16:03:03;;;;;;;3.03;1.77;;;20.60;45.60;;;;;;10355716;28;20225;-28
2021/04/23 16:08:26;;;;;;;2.67;1.63;;;20.60;45.50;;;;;;10375393;28;20215;-30
2021/04/23 16:13:47;;;;;;;2.97;1.40;;;20.70;45.70;;;;;;10374002;28;20694;-28
2021/04/23 16:19:10;;;;;;;2.77;1.53;;;20.70;45.60;;;;;;10373869;28;20187;-31
2021/04/23 16:24:31;;;;;;;3.17;1.33;;;20.70;45.30;;;;;;10373941;28;20214;-29
2021/04/23 16:29:53;;;;;;;2.37;1.50;;;20.70;45.30;;;;;;10373128;28;20226;-30
2021/04/23 16:35:16;;;;;;;3.53;1.73;;;20.80;45.40;;;;;;10371826;28;20226;-29
2021/04/23 16:40:38;;;;;;;3.10;1.73;;;20.50;45.90;;;;;;10343863;28;20225;-32
2021/04/23 16:45:59;;;;;;;6.40;1.80;;;20.20;46.60;;;;;;10356208;28;20225;-32
2021/04/23 16:51:22;;;;;;;3.30;1.53;;;20.10;47.10;;;;;;10336472;28;20297;-29
2021/04/23 16:56:44;;;;;;;3.30;1.50;;;19.90;47.40;;;;;;10345565;28;20712;-29
2021/04/23 17:02:06;;;;;;;2.60;1.50;;;19.90;47.60;;;;;;10326381;28;20225;-28
2021/04/23 17:07:28;;;;;;;4.57;1.70;;;19.90;47.60;;;;;;10325832;28;20709;-31
2021/04/23 17:12:51;;;;;;;2.87;1.83;;;19.90;47.70;;;;;;10326641;28;20282;-30
2021/04/23 17:18:12;;;;;;;3.60;1.70;;;19.80;48.10;;;;;;10327057;28;20780;-35
2021/04/23 17:23:36;;;;;;;2.47;1.67;;;19.70;48.20;;;;;;10326438;28;20224;-28
2021/04/23 17:28:58;;;;;;;7.43;2.57;;;19.60;48.50;;;;;;10352155;28;20594;-35
2021/04/23 17:34:19;;;;;;;7.90;2.80;;;19.60;48.80;;;;;;10359857;28;20256;-31
2021/04/23 17:39:42;;;;;;;9.77;3.27;;;19.50;49.00;;;;;;10350575;28;20206;-30
2021/04/23 17:45:05;;;;;;;10.13;4.13;;;19.50;49.20;;;;;;10354767;28;20250;-30
2021/04/23 17:50:26;;;;;;;9.17;3.63;;;19.40;49.40;;;;;;10362187;28;20571;-34
2021/04/23 17:55:49;;;;;;;9.17;3.10;;;19.40;49.50;;;;;;10361002;28;20209;-27
2021/04/23 18:01:11;;;;;;;6.70;3.07;;;19.40;49.70;;;;;;10361778;28;20911;-28
2021/04/23 18:06:33;;;;;;;11.50;3.67;;;19.30;49.70;;;;;;10367440;28;20269;-28
2021/04/23 18:11:55;;;;;;;9.23;3.60;;;19.30;49.10;;;;;;10359387;28;20232;-26
2021/04/23 18:17:17;;;;;;;11.77;3.73;;;19.40;49.20;;;;;;10330161;28;20638;-28
2021/04/23 18:22:39;;;;;;;10.83;3.20;;;19.40;49.00;;;;;;10342895;28;20225;-29
2021/04/23 18:28:02;;;;;;;7.03;2.83;;;19.60;49.20;;;;;;10355241;28;20272;-30
2021/04/23 18:33:26;;;;;;;7.53;2.80;;;19.70;49.10;;;;;;10363825;28;20230;-30
2021/04/23 18:38:48;;;;;;;8.57;3.10;;;19.80;48.90;;;;;;10356173;28;20197;-29
2021/04/23 18:44:11;;;;;;;6.13;2.73;;;19.80;48.70;;;;;;10351874;28;20220;-24
2021/04/23 18:49:33;;;;;;;8.10;3.00;;;19.80;48.80;;;;;;10341749;28;20807;-26
2021/04/23 18:54:54;;;;;;;7.57;3.03;;;19.90;49.20;;;;;;10334869;28;20275;-32
2021/04/23 19:00:20;;;;;;;6.87;2.53;;;19.90;48.50;;;;;;10366407;28;20194;-29
2021/04/23 19:05:42;;;;;;;7.43;2.53;;;20.00;48.30;;;;;;10367410;28;20689;-30
2021/04/23 19:11:03;;;;;;;6.37;3.03;;;20.00;48.50;;;;;;10366548;28;20637;-34
2021/04/23 19:16:27;;;;;;;5.60;2.33;;;20.00;48.40;;;;;;10366708;28;20582;-31
2021/04/23 19:21:56;;;;;;;7.60;2.90;;;20.00;48.30;;;;;;10342618;28;20232;-30
2021/04/23 19:27:18;;;;;;;7.90;2.83;;;19.80;49.00;;;;;;10333360;28;20226;-29
2021/04/23 19:32:40;;;;;;;6.40;3.15;;;19.70;49.80;;;;;;10369558;23;20462;-26
2021/04/23 19:38:02;;;;;;;4.03;2.50;;;19.70;48.90;;;;;;10397493;28;20213;-28
2021/04/23 19:43:24;;;;;;;6.97;3.57;;;19.50;49.60;;;;;;10399376;28;20712;-27
2021/04/23 19:48:47;;;;;;;6.60;3.00;;;19.40;47.90;;;;;;10394199;28;20602;-28
2021/04/23 19:54:08;;;;;;;5.17;3.00;;;19.50;48.40;;;;;;10395593;28;20273;-26
2021/04/23 19:59:30;;;;;;;5.53;2.80;;;19.40;48.30;;;;;;10355107;28;20269;-27
2021/04/23 20:04:52;;;;;;;5.67;2.87;;;19.50;48.40;;;;;;10356354;28;20226;-27
2021/04/23 20:10:16;;;;;;;7.43;2.93;;;19.40;48.80;;;;;;10356419;28;20222;-27
2021/04/23 20:15:38;;;;;;;4.90;2.93;;;19.40;49.30;;;;;;10355836;28;20674;-26
2021/04/23 20:21:01;;;;;;;5.67;2.70;;;19.40;49.30;;;;;;10354858;28;20195;-26
2021/04/23 20:26:23;;;;;;;4.77;2.60;;;19.30;49.40;;;;;;10354061;28;20230;-28
2021/04/23 20:31:44;;;;;;;4.43;2.60;;;19.30;49.40;;;;;;10354212;28;21034;-25
2021/04/23 20:37:08;;;;;;;4.60;2.33;;;19.30;49.50;;;;;;10372179;28;20195;-26
2021/04/23 20:42:30;;;;;;;5.80;2.53;;;19.30;49.40;;;;;;10426549;28;20221;-25
2021/04/23 20:47:53;;;;;;;4.47;2.40;;;19.20;49.60;;;;;;10398800;28;20716;-24
2021/04/23 20:53:15;;;;;;;5.37;2.80;;;19.20;49.60;;;;;;10392170;28;20292;-27
2021/04/23 20:58:37;;;;;;;3.57;2.30;;;19.20;49.80;;;;;;10429426;28;20190;-26
2021/04/23 21:03:59;;;;;;;5.37;2.53;;;19.20;49.80;;;;;;10434820;28;20222;-27
2021/04/23 21:09:21;;;;;;;4.97;2.80;;;19.20;49.70;;;;;;10431653;28;20206;-27
2021/04/23 21:14:44;;;;;;;2.93;2.50;;;19.20;49.80;;;;;;10414479;28;20601;-27
2021/04/23 21:20:07;;;;;;;5.13;2.57;;;19.10;49.80;;;;;;10390765;28;20249;-27
2021/04/23 21:25:29;;;;;;;4.10;2.73;;;19.10;49.90;;;;;;10393317;28;20218;-27
2021/04/23 21:30:51;;;;;;;3.83;2.30;;;19.10;50.00;;;;;;10387657;28;20218;-26
2021/04/23 21:36:12;;;;;;;5.57;2.50;;;19.10;49.90;;;;;;10419506;28;20602;-27
2021/04/23 21:41:35;;;;;;;5.27;2.53;;;19.10;50.00;;;;;;10391431;28;20629;-25
2021/04/23 21:46:57;;;;;;;4.00;2.40;;;19.10;50.00;;;;;;10352605;28;20262;-26
2021/04/23 21:52:18;;;;;;;4.27;2.50;;;19.10;50.00;;;;;;10351862;28;20246;-28
2021/04/23 21:57:41;;;;;;;5.23;2.20;;;19.10;49.90;;;;;;10407263;28;20193;-25
2021/04/23 22:03:03;;;;;;;3.80;2.20;;;19.10;50.00;;;;;;10417264;28;20250;-26
2021/04/23 22:08:25;;;;;;;3.80;2.20;;;19.10;49.90;;;;;;10348076;28;20211;-26
2021/04/23 22:13:47;;;;;;;4.17;2.27;;;19.00;50.10;;;;;;10348617;28;20730;-27
2021/04/23 22:19:09;;;;;;;5.43;2.53;;;19.00;50.10;;;;;;10355482;28;20187;-24
2021/04/23 22:24:31;;;;;;;4.20;2.50;;;19.00;50.00;;;;;;10423195;28;20232;-26
2021/04/23 22:29:53;;;;;;;4.63;2.00;;;19.00;50.10;;;;;;10432199;28;20692;-27
2021/04/23 22:35:17;;;;;;;5.23;2.50;;;19.00;50.00;;;;;;10430021;28;20228;-28
2021/04/23 22:40:39;;;;;;;4.13;2.07;;;19.00;50.10;;;;;;10421329;28;20601;-27
2021/04/23 22:46:01;;;;;;;4.77;2.33;;;18.90;50.00;;;;;;10382219;28;20218;-26
2021/04/23 22:51:23;;;;;;;3.83;2.00;;;19.00;50.10;;;;;;10389495;28;20620;-27
2021/04/23 22:56:45;;;;;;;3.43;2.23;;;18.90;50.40;;;;;;10410325;28;20205;-27
2021/04/23 23:02:07;;;;;;;4.70;2.07;;;18.80;50.70;;;;;;10430893;28;20213;-26
2021/04/23 23:07:29;;;;;;;4.27;1.90;;;18.70;50.70;;;;;;10431870;28;20673;-26
2021/04/23 23:12:51;;;;;;;4.23;2.23;;;18.60;50.80;;;;;;10427675;28;20228;-27
2021/04/23 23:18:14;;;;;;;5.77;2.30;;;18.60;51.00;;;;;;10430598;28;20205;-25
2021/04/23 23:23:35;;;;;;;2.57;1.93;;;18.50;50.70;;;;;;10391852;28;20217;-27
2021/04/23 23:28:57;;;;;;;3.93;1.90;;;18.50;51.00;;;;;;10389903;28;20206;-26
2021/04/23 23:34:19;;;;;;;3.97;2.20;;;18.50;50.80;;;;;;10389008;28;20218;-26
2021/04/23 23:39:41;;;;;;;4.40;2.13;;;18.40;50.80;;;;;;10389029;28;20194;-26
2021/04/23 23:45:03;;;;;;;4.43;2.20;;;18.40;51.00;;;;;;10390782;28;20225;-25
2021/04/23 23:50:26;;;;;;;5.17;2.57;;;18.40;50.90;;;;;;10388133;28;20229;-24
2021/04/23 23:55:48;;;;;;;3.53;2.20;;;18.40;51.00;;;;;;10400699;28;20230;-27
